Baltic Marshall — C4KD2 — position and weather

sailwx.info

Track history (hours):
 
Tides and Currents Weather Stations Pressure Air Temp Water Temp Dewpoint Dewpoint Depression Visibility Wind Speed Wind Dir Waves Ship Positions

Baltic Marshall

Last reported at 2016-Jul-27 06:30 UTC. Time now 2016-Jul-28 02:55 UTC.
Position N 53°31' E 009°57'.

Length 183 m; draft 9.3 m.

Type: Ship. MMSI: 212118000.

Date/timePositionNaut miles runAvg speedWind from/ knotsBaromVisibWave heightAir tempDewpointWater temp
2016-Jul-27 06:30N 53°31' E 009°57'0 0.2
2016-Jul-27 05:33N 53°30' E 009°57'0 0.0
2016-Jul-26 09:32N 53°30' E 009°58'2 2.5
2016-Jul-26 08:33N 53°32' E 009°56'9 9.3
2016-Jul-26 07:34N 53°34' E 009°40'1211.6
2016-Jul-26 06:33N 53°43' E 009°28'1313.3
2016-Jul-26 05:33N 53°53' E 009°12'1313.4
2016-Jul-26 04:33N 53°50' E 008°50'1313.4
2016-Jul-26 03:33N 53°58' E 008°32'1413.7
2016-Jul-26 02:33N 53°59' E 008°08'8 8.4
2016-Jul-26 01:33N 54°03' E 007°56'4 3.5
2016-Jul-26 00:33N 54°04' E 007°50'1313.2
2016-Jul-25 23:34N 54°09' E 007°29'1414.0
2016-Jul-25 22:34N 54°09' E 007°05'1313.3
2016-Jul-25 21:33N 54°09' E 006°42'1312.7
2016-Jul-25 20:33N 54°08' E 006°21'1212.4
2016-Jul-25 19:33N 54°07' E 005°60'1212.1
2016-Jul-25 18:33N 54°05' E 005°39'1212.1
2016-Jul-25 17:33N 54°03' E 005°19'1212.3
2016-Jul-25 16:33N 54°01' E 004°58'1211.6
2016-Jul-25 15:33N 53°57' E 004°40'15913.0
2016-Jul-25 03:20N 51°40' E 002°27'1114.1
2016-Jul-25 02:33N 51°31' E 002°16'1313.5
2016-Jul-25 01:33N 51°20' E 002°03'1312.8
2016-Jul-25 00:33N 51°12' E 001°48'1111.5
2016-Jul-24 23:34N 51°03' E 001°36'1111.0
2016-Jul-24 22:33N 50°54' E 001°27'4510.6
2016-Jul-24 18:17N 50°25' E 000°32'1111.8
2016-Jul-24 17:22N 50°22' E 000°15'911.8
2016-Jul-24 16:34N 50°19' E 000°01'1211.9
2016-Jul-24 15:33N 50°17' W 000°17'1212.1
2016-Jul-24 14:33N 50°14' W 000°36'1413.5
2016-Jul-24 13:33N 50°10' W 000°56'1515.2
2016-Jul-24 12:33N 50°06' W 001°19'1716.3
2016-Jul-24 11:31N 50°01' W 001°44'1717.1
2016-Jul-24 10:32N 49°57' W 002°09'1716.2
2016-Jul-24 09:29N 49°52' W 002°35'1615.0
2016-Jul-24 08:23N 49°46' W 002°58'1214.4
2016-Jul-24 07:33N 49°41' W 003°15'1613.9
2016-Jul-24 06:25N 49°33' W 003°36'1213.7
2016-Jul-24 05:33N 49°27' W 003°52'1313.2
2016-Jul-24 04:33N 49°20' W 004°09'1312.7
2016-Jul-24 03:33N 49°14' W 004°26'1312.0
2016-Jul-24 02:26N 49°07' W 004°44'1011.4
2016-Jul-24 01:33N 49°02' W 004°57'1111.1
2016-Jul-24 00:33N 48°57' W 005°12'1111.0
2016-Jul-23 23:33N 48°51' W 005°26'1111.1
2016-Jul-23 22:33N 48°43' W 005°38'1211.5
2016-Jul-23 21:33N 48°33' W 005°47'1412.2
2016-Jul-23 20:26N 48°21' W 005°57'1512.8
2016-Jul-23 19:15N 48°08' W 006°08'913.5
2016-Jul-23 18:33N 47°60' W 006°15'1413.7
2016-Jul-23 17:33N 47°48' W 006°25'1514.2
2016-Jul-23 16:30N 47°34' W 006°36'52112.1
2016-Jul-21 21:33N 39°14' W 009°57'1212.1
2016-Jul-21 20:33N 39°02' W 009°57'1212.0
2016-Jul-21 19:33N 38°50' W 009°57'1212.2
2016-Jul-21 18:33N 38°38' W 009°56'1312.8
2016-Jul-21 17:33N 38°25' W 009°52'1312.6
2016-Jul-21 16:33N 38°13' W 009°48'1312.6
2016-Jul-21 15:33N 38°01' W 009°45'1312.6
2016-Jul-21 14:33N 37°49' W 009°41'1312.8
2016-Jul-21 13:33N 37°36' W 009°37'1312.5
2016-Jul-21 12:33N 37°24' W 009°34'1212.4
2016-Jul-21 11:33N 37°12' W 009°30'1312.7
2016-Jul-21 10:32N 36°59' W 009°26'1512.3
2016-Jul-21 09:16N 36°45' W 009°18'912.2
2016-Jul-21 08:31N 36°40' W 009°09'1312.5
2016-Jul-21 07:29N 36°37' W 008°53'1212.8
2016-Jul-21 06:33N 36°33' W 008°39'1313.0
2016-Jul-21 05:33N 36°30' W 008°23'1312.9
2016-Jul-21 04:33N 36°27' W 008°08'1312.8
2016-Jul-21 03:33N 36°22' W 007°53'1312.7
2016-Jul-21 02:34N 36°18' W 007°38'3013.5
2016-Jul-21 00:18N 36°07' W 007°03'3813.8
2016-Jul-20 21:33N 35°57' W 006°18'3611.9
2016-Jul-20 18:33N 35°58' W 005°34'9 9.3
2016-Jul-20 17:33N 35°58' W 005°22'4 3.8
2016-Jul-20 16:33N 35°55' W 005°20'0 0.2
2016-Jul-20 15:33N 35°55' W 005°20'0 0.1
2016-Jul-20 14:33N 35°55' W 005°20'3 2.9
2016-Jul-20 13:34N 35°56' W 005°16'12912.5
2016-Jul-20 03:15N 36°20' W 002°39'3713.6
2016-Jul-20 00:32N 36°29' W 001°55'1613.7
2016-Jul-19 23:23N 36°32' W 001°36'1113.6
2016-Jul-19 22:33N 36°34' W 001°22'1713.0
2016-Jul-19 21:15N 36°37' W 001°01'912.7
2016-Jul-19 20:32N 36°39' W 000°50'1212.4
2016-Jul-19 19:33N 36°41' W 000°35'1312.9
2016-Jul-19 18:32N 36°43' W 000°19'1312.9
2016-Jul-19 17:33N 36°46' W 000°03'1313.2
2016-Jul-19 16:33N 36°48' E 000°13'1413.4
2016-Jul-19 15:31N 36°51' E 000°30'1312.8
2016-Jul-19 14:32N 36°53' E 000°45'1313.1
2016-Jul-19 13:33N 36°56' E 001°01'1313.3
2016-Jul-19 12:33N 36°58' E 001°17'1413.2
2016-Jul-19 11:28N 37°01' E 001°35'1212.7
2016-Jul-19 10:33N 37°03' E 001°49'1313.0
2016-Jul-19 09:32N 37°05' E 002°05'1413.3
2016-Jul-19 08:30N 37°08' E 002°22'1313.2
2016-Jul-19 07:33N 37°10' E 002°38'1313.4
2016-Jul-19 06:33N 37°13' E 002°54'2512.0
2016-Jul-19 04:30N 37°17' E 003°25'1111.6
2016-Jul-19 03:33N 37°19' E 003°38'1212.4
2016-Jul-19 02:33N 37°22' E 003°54'4213.1
2016-Jul-18 23:20N 37°30' E 004°46'1012.9
2016-Jul-18 22:33N 37°31' E 004°58'1312.8
2016-Jul-18 21:33N 37°35' E 005°14'1312.6
2016-Jul-18 20:33N 37°36' E 005°30'12912.9
2016-Jul-18 10:33N 37°39' E 008°13'1813.9
2016-Jul-18 09:15N 37°39' E 008°36'4712.5
2016-Jul-18 05:32N 37°39' E 009°34'1212.0
2016-Jul-18 04:33N 37°39' E 009°49'2712.1
2016-Jul-18 02:18N 37°39' E 010°24'912.7
2016-Jul-18 01:33N 37°37' E 010°35'1312.6
2016-Jul-18 00:33N 37°34' E 010°51'7813.0
2016-Jul-17 18:33N 36°57' E 012°17'4212.5
2016-Jul-17 15:12N 36°40' E 013°05'812.2
2016-Jul-17 14:33N 36°37' E 013°14'1212.3
2016-Jul-17 13:33N 36°33' E 013°28'1212.5
2016-Jul-17 12:33N 36°28' E 013°43'1212.3
2016-Jul-17 11:33N 36°25' E 013°57'1812.2
2016-Jul-17 10:04N 36°19' E 014°19'  
Track history (hours):
 
Tides and Currents Weather Stations Pressure Air Temp Water Temp Dewpoint Dewpoint Depression Visibility Wind Speed Wind Dir Waves Ship Positions

Baltic Marshall

Last reported at 2016-Jul-27 06:30 UTC. Time now 2016-Jul-28 02:55 UTC.
Position N 53°31' E 009°57'.

Length 183 m; draft 9.3 m.

Type: Ship. MMSI: 212118000.

Date/timePositionNaut miles runAvg speedWind from/ knotsBaromVisibWave heightAir tempDewpointWater temp
2016-Jul-27 06:30N 53°31' E 009°57'0 0.2
2016-Jul-27 05:33N 53°30' E 009°57'0 0.0
2016-Jul-26 09:32N 53°30' E 009°58'2 2.5
2016-Jul-26 08:33N 53°32' E 009°56'9 9.3
2016-Jul-26 07:34N 53°34' E 009°40'1211.6
2016-Jul-26 06:33N 53°43' E 009°28'1313.3
2016-Jul-26 05:33N 53°53' E 009°12'1313.4
2016-Jul-26 04:33N 53°50' E 008°50'1313.4
2016-Jul-26 03:33N 53°58' E 008°32'1413.7
2016-Jul-26 02:33N 53°59' E 008°08'8 8.4
2016-Jul-26 01:33N 54°03' E 007°56'4 3.5
2016-Jul-26 00:33N 54°04' E 007°50'1313.2
2016-Jul-25 23:34N 54°09' E 007°29'1414.0
2016-Jul-25 22:34N 54°09' E 007°05'1313.3
2016-Jul-25 21:33N 54°09' E 006°42'1312.7
2016-Jul-25 20:33N 54°08' E 006°21'1212.4
2016-Jul-25 19:33N 54°07' E 005°60'1212.1
2016-Jul-25 18:33N 54°05' E 005°39'1212.1
2016-Jul-25 17:33N 54°03' E 005°19'1212.3
2016-Jul-25 16:33N 54°01' E 004°58'1211.6
2016-Jul-25 15:33N 53°57' E 004°40'15913.0
2016-Jul-25 03:20N 51°40' E 002°27'1114.1
2016-Jul-25 02:33N 51°31' E 002°16'1313.5
2016-Jul-25 01:33N 51°20' E 002°03'1312.8
2016-Jul-25 00:33N 51°12' E 001°48'1111.5
2016-Jul-24 23:34N 51°03' E 001°36'1111.0
2016-Jul-24 22:33N 50°54' E 001°27'4510.6
2016-Jul-24 18:17N 50°25' E 000°32'1111.8
2016-Jul-24 17:22N 50°22' E 000°15'911.8
2016-Jul-24 16:34N 50°19' E 000°01'1211.9
2016-Jul-24 15:33N 50°17' W 000°17'1212.1
2016-Jul-24 14:33N 50°14' W 000°36'1413.5
2016-Jul-24 13:33N 50°10' W 000°56'1515.2
2016-Jul-24 12:33N 50°06' W 001°19'1716.3
2016-Jul-24 11:31N 50°01' W 001°44'1717.1
2016-Jul-24 10:32N 49°57' W 002°09'1716.2
2016-Jul-24 09:29N 49°52' W 002°35'1615.0
2016-Jul-24 08:23N 49°46' W 002°58'1214.4
2016-Jul-24 07:33N 49°41' W 003°15'1613.9
2016-Jul-24 06:25N 49°33' W 003°36'1213.7
2016-Jul-24 05:33N 49°27' W 003°52'1313.2
2016-Jul-24 04:33N 49°20' W 004°09'1312.7
2016-Jul-24 03:33N 49°14' W 004°26'1312.0
2016-Jul-24 02:26N 49°07' W 004°44'1011.4
2016-Jul-24 01:33N 49°02' W 004°57'1111.1
2016-Jul-24 00:33N 48°57' W 005°12'1111.0
2016-Jul-23 23:33N 48°51' W 005°26'1111.1
2016-Jul-23 22:33N 48°43' W 005°38'1211.5
2016-Jul-23 21:33N 48°33' W 005°47'1412.2
2016-Jul-23 20:26N 48°21' W 005°57'1512.8
2016-Jul-23 19:15N 48°08' W 006°08'913.5
2016-Jul-23 18:33N 47°60' W 006°15'1413.7
2016-Jul-23 17:33N 47°48' W 006°25'1514.2
2016-Jul-23 16:30N 47°34' W 006°36'52112.1
2016-Jul-21 21:33N 39°14' W 009°57'1212.1
2016-Jul-21 20:33N 39°02' W 009°57'1212.0
2016-Jul-21 19:33N 38°50' W 009°57'1212.2
2016-Jul-21 18:33N 38°38' W 009°56'1312.8
2016-Jul-21 17:33N 38°25' W 009°52'1312.6
2016-Jul-21 16:33N 38°13' W 009°48'1312.6
2016-Jul-21 15:33N 38°01' W 009°45'1312.6
2016-Jul-21 14:33N 37°49' W 009°41'1312.8
2016-Jul-21 13:33N 37°36' W 009°37'1312.5
2016-Jul-21 12:33N 37°24' W 009°34'1212.4
2016-Jul-21 11:33N 37°12' W 009°30'1312.7
2016-Jul-21 10:32N 36°59' W 009°26'1512.3
2016-Jul-21 09:16N 36°45' W 009°18'912.2
2016-Jul-21 08:31N 36°40' W 009°09'1312.5
2016-Jul-21 07:29N 36°37' W 008°53'1212.8
2016-Jul-21 06:33N 36°33' W 008°39'1313.0
2016-Jul-21 05:33N 36°30' W 008°23'1312.9
2016-Jul-21 04:33N 36°27' W 008°08'1312.8
2016-Jul-21 03:33N 36°22' W 007°53'1312.7
2016-Jul-21 02:34N 36°18' W 007°38'3013.5
2016-Jul-21 00:18N 36°07' W 007°03'3813.8
2016-Jul-20 21:33N 35°57' W 006°18'3611.9
2016-Jul-20 18:33N 35°58' W 005°34'9 9.3
2016-Jul-20 17:33N 35°58' W 005°22'4 3.8
2016-Jul-20 16:33N 35°55' W 005°20'0 0.2
2016-Jul-20 15:33N 35°55' W 005°20'0 0.1
2016-Jul-20 14:33N 35°55' W 005°20'3 2.9
2016-Jul-20 13:34N 35°56' W 005°16'12912.5
2016-Jul-20 03:15N 36°20' W 002°39'3713.6
2016-Jul-20 00:32N 36°29' W 001°55'1613.7
2016-Jul-19 23:23N 36°32' W 001°36'1113.6
2016-Jul-19 22:33N 36°34' W 001°22'1713.0
2016-Jul-19 21:15N 36°37' W 001°01'912.7
2016-Jul-19 20:32N 36°39' W 000°50'1212.4
2016-Jul-19 19:33N 36°41' W 000°35'1312.9
2016-Jul-19 18:32N 36°43' W 000°19'1312.9
2016-Jul-19 17:33N 36°46' W 000°03'1313.2
2016-Jul-19 16:33N 36°48' E 000°13'1413.4
2016-Jul-19 15:31N 36°51' E 000°30'1312.8
2016-Jul-19 14:32N 36°53' E 000°45'1313.1
2016-Jul-19 13:33N 36°56' E 001°01'1313.3
2016-Jul-19 12:33N 36°58' E 001°17'1413.2
2016-Jul-19 11:28N 37°01' E 001°35'1212.7
2016-Jul-19 10:33N 37°03' E 001°49'1313.0
2016-Jul-19 09:32N 37°05' E 002°05'1413.3
2016-Jul-19 08:30N 37°08' E 002°22'1313.2
2016-Jul-19 07:33N 37°10' E 002°38'1313.4
2016-Jul-19 06:33N 37°13' E 002°54'2512.0
2016-Jul-19 04:30N 37°17' E 003°25'1111.6
2016-Jul-19 03:33N 37°19' E 003°38'1212.4
2016-Jul-19 02:33N 37°22' E 003°54'4213.1
2016-Jul-18 23:20N 37°30' E 004°46'1012.9
2016-Jul-18 22:33N 37°31' E 004°58'1312.8
2016-Jul-18 21:33N 37°35' E 005°14'1312.6
2016-Jul-18 20:33N 37°36' E 005°30'12912.9
2016-Jul-18 10:33N 37°39' E 008°13'1813.9
2016-Jul-18 09:15N 37°39' E 008°36'4712.5
2016-Jul-18 05:32N 37°39' E 009°34'1212.0
2016-Jul-18 04:33N 37°39' E 009°49'2712.1
2016-Jul-18 02:18N 37°39' E 010°24'912.7
2016-Jul-18 01:33N 37°37' E 010°35'1312.6
2016-Jul-18 00:33N 37°34' E 010°51'7813.0
2016-Jul-17 18:33N 36°57' E 012°17'4212.5
2016-Jul-17 15:12N 36°40' E 013°05'812.2
2016-Jul-17 14:33N 36°37' E 013°14'1212.3
2016-Jul-17 13:33N 36°33' E 013°28'1212.5
2016-Jul-17 12:33N 36°28' E 013°43'1212.3
2016-Jul-17 11:33N 36°25' E 013°57'1812.2
2016-Jul-17 10:04N 36°19' E 014°19'  

Dump ship's entire track history